Time;durP1;ratioP1;P1;durP2;ratioP2;P2;SDS_P1;SDS_P2;PMS_P1;PMS_P2;Temp;Humidity;BMP_temperature;BMP_pressure;BME280_temperature;BME280_humidity;BME280_pressure;Samples;Min_cycle;Max_cycle;Signal;HPM_P1;HPM_P2
2024/03/07 00:00:26;;;;;;;15.67;11.53;;;;;;;5.75;72.52;96508.59;5011417;28;20211;-84
2024/03/07 00:02:52;;;;;;;21.10;12.17;;;;;;;5.83;72.83;96514.16;5017237;28;20198;-86
2024/03/07 00:05:20;;;;;;;14.87;10.93;;;;;;;5.80;72.71;96513.88;5021498;28;20192;-84
2024/03/07 00:07:48;;;;;;;17.37;10.77;;;;;;;5.87;72.43;96511.81;5011466;28;20207;-84
2024/03/07 00:10:15;;;;;;;17.00;12.03;;;;;;;5.56;72.13;96445.66;5011732;28;20199;-84
2024/03/07 00:12:42;;;;;;;18.50;11.37;;;;;;;5.70;72.29;96466.31;5011916;28;20709;-84
2024/03/07 00:15:11;;;;;;;16.33;10.27;;;;;;;5.95;71.16;96503.41;5012845;28;20207;-86
2024/03/07 00:17:42;;;;;;;17.83;10.53;;;;;;;5.81;70.90;96475.88;5015148;28;20260;-84
2024/03/07 00:20:13;;;;;;;16.00;10.03;;;;;;;5.87;71.42;96499.41;5032341;28;20202;-84
2024/03/07 00:22:41;;;;;;;16.50;11.40;;;;;;;5.85;71.62;96490.16;5012796;28;20229;-85
2024/03/07 00:25:09;;;;;;;21.57;12.63;;;;;;;5.77;71.71;96495.91;5011969;28;20199;-84
2024/03/07 00:27:36;;;;;;;18.93;11.10;;;;;;;5.72;71.67;96483.47;5012739;28;20690;-85
2024/03/07 00:30:05;;;;;;;13.93;9.70;;;;;;;5.57;71.85;96467.56;5011875;28;20203;-84
2024/03/07 00:32:35;;;;;;;13.13;9.90;;;;;;;5.50;72.05;96457.25;5012059;28;20223;-83
2024/03/07 00:35:04;;;;;;;13.80;10.67;;;;;;;5.79;71.91;96488.53;5010257;28;20203;-85
2024/03/07 00:37:31;;;;;;;15.80;10.77;;;;;;;5.66;72.47;96481.09;5011271;28;20254;-86
2024/03/07 00:39:57;;;;;;;20.93;11.77;;;;;;;5.78;72.08;96481.69;5011269;28;20625;-83
2024/03/07 00:42:24;;;;;;;16.43;11.43;;;;;;;5.77;72.43;96488.81;5011961;28;20199;-86
2024/03/07 00:44:51;;;;;;;14.97;11.40;;;;;;;5.83;72.37;96477.19;5012161;28;20210;-83
2024/03/07 00:47:29;;;;;;;12.47;10.77;;;;;;;5.88;72.14;96474.59;5011347;28;20206;-84
2024/03/07 00:50:10;;;;;;;16.33;10.60;;;;;;;5.55;72.69;96448.56;5011422;28;20662;-84
2024/03/07 00:52:39;;;;;;;16.67;10.90;;;;;;;5.52;72.99;96441.16;5010970;28;20215;-84
2024/03/07 00:55:08;;;;;;;17.30;11.63;;;;;;;5.79;72.85;96473.47;5012176;28;20199;-84
2024/03/07 00:57:35;;;;;;;17.53;11.50;;;;;;;5.70;72.70;96445.19;5010800;28;20203;-85
2024/03/07 01:00:02;;;;;;;17.63;11.30;;;;;;;5.66;73.46;96460.75;5011997;28;20245;-84
2024/03/07 01:02:30;;;;;;;14.70;11.93;;;;;;;5.69;73.36;96470.78;5012061;28;20191;-85
2024/03/07 01:04:59;;;;;;;17.30;11.03;;;;;;;5.83;72.45;96456.06;5010375;28;20203;-85
2024/03/07 01:07:27;;;;;;;12.50;10.20;;;;;;;5.77;72.73;96454.47;5011549;28;20219;-84
2024/03/07 01:09:55;;;;;;;18.47;11.10;;;;;;;5.59;73.26;96449.63;5010389;28;20199;-86
2024/03/07 01:12:24;;;;;;;18.33;11.40;;;;;;;5.18;73.55;96401.13;5011703;28;20310;-86
2024/03/07 01:14:53;;;;;;;17.87;12.63;;;;;;;5.03;73.45;96372.81;5030636;28;20207;-84
2024/03/07 01:17:20;;;;;;;16.53;11.13;;;;;;;5.72;73.00;96465.00;5015692;28;20199;-85
2024/03/07 01:19:49;;;;;;;16.50;10.23;;;;;;;5.62;73.62;96464.97;5011429;28;20572;-86
2024/03/07 01:22:18;;;;;;;14.87;10.17;;;;;;;5.57;73.56;96457.78;5012179;28;20203;-85
2024/03/07 01:24:45;;;;;;;15.40;12.23;;;;;;;5.58;73.43;96459.41;5010864;28;20199;-85
2024/03/07 01:27:12;;;;;;;18.43;11.17;;;;;;;5.18;73.80;96404.56;5005980;28;20227;-85
2024/03/07 01:29:41;;;;;;;17.00;12.00;;;;;;;5.38;73.53;96470.66;5005094;28;20214;-86
2024/03/07 01:32:08;;;;;;;15.93;11.20;;;;;;;5.46;73.98;96473.84;5010773;28;20254;-85
2024/03/07 01:34:35;;;;;;;13.43;10.10;;;;;;;5.31;73.89;96459.53;5010537;28;20195;-87
2024/03/07 01:37:02;;;;;;;14.47;10.83;;;;;;;5.47;73.38;96472.81;5026154;28;20214;-86
2024/03/07 01:39:39;;;;;;;14.90;10.37;;;;;;;5.36;73.28;96459.53;5012014;28;20571;-85
2024/03/07 01:42:09;;;;;;;14.80;9.77;;;;;;;5.27;73.49;96452.38;5011397;28;20195;-85
2024/03/07 01:44:43;;;;;;;15.47;10.90;;;;;;;5.51;73.33;96473.88;5011758;28;20196;-85
2024/03/07 01:47:11;;;;;;;18.20;11.30;;;;;;;5.32;73.10;96455.03;5011523;28;20689;-85
2024/03/07 01:49:39;;;;;;;18.93;11.10;;;;;;;5.27;73.15;96450.53;5010392;28;20195;-86
2024/03/07 01:52:07;;;;;;;16.40;10.03;;;;;;;5.48;73.22;96477.81;5011052;28;20682;-86
2024/03/07 01:54:39;;;;;;;13.83;10.30;;;;;;;5.23;73.35;96448.66;5010596;28;20204;-86
2024/03/07 01:57:06;;;;;;;18.73;11.97;;;;;;;5.42;73.23;96468.31;5014035;28;20195;-85
2024/03/07 01:59:34;;;;;;;13.70;11.03;;;;;;;5.51;73.19;96474.69;5014014;28;20214;-85
2024/03/07 02:02:02;;;;;;;19.47;10.77;;;;;;;5.53;72.66;96469.13;5014765;28;20634;-84
2024/03/07 02:04:29;;;;;;;13.97;9.03;;;;;;;5.35;73.11;96449.25;5013522;28;20250;-85
2024/03/07 02:06:57;;;;;;;12.87;10.53;;;;;;;5.61;72.88;96464.19;5014236;28;20203;-85
2024/03/07 02:09:24;;;;;;;14.27;10.07;;;;;;;5.40;72.98;96436.88;5013653;28;20206;-85
2024/03/07 02:11:52;;;;;;;19.77;10.70;;;;;;;5.59;72.77;96461.00;5015166;28;20286;-85
2024/03/07 02:14:29;;;;;;;15.67;9.97;;;;;;;5.40;72.82;96430.81;5014807;28;20219;-85
2024/03/07 02:16:57;;;;;;;16.43;10.97;;;;;;;5.33;73.86;96456.63;5015419;28;20222;-85
2024/03/07 02:19:27;;;;;;;16.20;10.90;;;;;;;5.21;73.80;96443.63;5014871;28;20286;-85
2024/03/07 02:21:55;;;;;;;13.57;10.37;;;;;;;5.34;73.76;96463.47;5014386;28;20207;-85
2024/03/07 02:24:23;;;;;;;17.37;9.70;;;;;;;5.22;73.63;96447.84;5014560;28;20210;-85
2024/03/07 02:27:05;;;;;;;16.77;10.60;;;;;;;5.15;73.60;96436.75;5013194;28;20681;-85
2024/03/07 02:29:33;;;;;;;14.23;10.43;;;;;;;5.06;73.40;96411.88;5012222;28;20202;-85
2024/03/07 02:32:00;;;;;;;15.73;10.57;;;;;;;5.32;73.31;96429.44;5014222;28;20206;-85
2024/03/07 02:34:26;;;;;;;14.33;10.47;;;;;;;5.49;72.86;96447.72;5012310;28;20313;-84
2024/03/07 02:36:58;;;;;;;18.97;11.30;;;;;;;5.56;73.14;96458.06;5013769;28;20206;-84
2024/03/07 02:39:25;;;;;;;15.90;10.30;;;;;;;5.42;73.33;96449.81;5013721;28;20203;-85
2024/03/07 02:41:52;;;;;;;14.33;10.33;;;;;;;5.35;73.29;96434.22;5005544;28;20239;-85
2024/03/07 02:44:19;;;;;;;14.60;10.77;;;;;;;5.31;73.60;96456.09;5013937;28;20204;-85
2024/03/07 02:46:47;;;;;;;15.43;10.53;;;;;;;5.11;73.92;96422.44;5014030;28;20205;-85
2024/03/07 02:49:15;;;;;;;19.40;10.50;;;;;;;5.25;74.15;96457.09;5014439;28;20207;-85
2024/03/07 02:51:47;;;;;;;15.60;10.77;;;;;;;5.19;73.85;96447.56;5020771;28;20199;-85
2024/03/07 02:54:15;;;;;;;13.10;10.27;;;;;;;5.09;74.21;96435.91;5013302;28;20223;-85
2024/03/07 02:56:48;;;;;;;14.03;10.30;;;;;;;5.28;74.14;96452.13;5013379;28;20211;-85
2024/03/07 02:59:16;;;;;;;17.80;9.93;;;;;;;5.29;73.97;96460.81;5013463;28;20666;-85
2024/03/07 03:01:43;;;;;;;15.27;11.40;;;;;;;5.27;74.01;96442.63;5012401;28;20241;-86
2024/03/07 03:04:10;;;;;;;13.93;10.83;;;;;;;5.36;73.66;96451.63;5020819;28;20270;-85
2024/03/07 03:06:39;;;;;;;12.93;9.57;;;;;;;5.05;73.91;96415.56;5013257;28;20217;-85
2024/03/07 03:09:13;;;;;;;12.30;9.97;;;;;;;5.29;74.07;96447.63;5013249;28;20207;-85
2024/03/07 03:11:41;;;;;;;15.57;9.57;;;;;;;5.19;73.90;96440.47;5013628;28;20199;-85
2024/03/07 03:14:10;;;;;;;19.37;10.47;;;;;;;5.12;74.21;96442.53;5012692;28;20223;-86
2024/03/07 03:16:37;;;;;;;12.63;10.17;;;;;;;5.10;74.09;96428.78;5012892;28;20643;-85
2024/03/07 03:19:04;;;;;;;13.50;9.23;;;;;;;5.26;74.04;96445.50;5013914;28;20210;-85
2024/03/07 03:21:33;;;;;;;14.47;10.47;;;;;;;4.73;73.96;96374.22;5012433;28;20277;-86
2024/03/07 03:24:02;;;;;;;121.73;75.07;;;;;;;5.16;73.75;96443.59;5012830;28;20290;-85
2024/03/07 03:26:31;;;;;;;55.37;39.77;;;;;;;4.99;74.04;96425.28;5012660;28;20227;-85
2024/03/07 03:29:02;;;;;;;23.67;17.63;;;;;;;4.79;73.66;96388.22;5013636;28;20242;-85
2024/03/07 03:31:29;;;;;;;18.77;11.27;;;;;;;5.12;73.95;96455.72;5013240;28;20203;-86
2024/03/07 03:33:56;;;;;;;23.73;12.30;;;;;;;5.09;73.95;96469.41;5011404;28;20215;-86
2024/03/07 03:36:24;;;;;;;16.80;11.30;;;;;;;4.85;73.13;96398.56;5012470;28;20221;-85
2024/03/07 03:38:52;;;;;;;13.27;10.60;;;;;;;5.14;72.85;96448.31;5012424;28;20573;-85
2024/03/07 03:41:23;;;;;;;14.80;9.87;;;;;;;5.07;73.05;96456.47;5011913;28;20678;-85
2024/03/07 03:43:50;;;;;;;15.40;10.23;;;;;;;5.13;73.07;96457.28;5011896;28;20253;-85
2024/03/07 03:46:18;;;;;;;15.77;11.03;;;;;;;5.16;72.33;96433.03;5013736;28;20207;-85
2024/03/07 03:48:45;;;;;;;18.50;11.70;;;;;;;4.89;73.51;96433.94;5011848;28;20222;-84
2024/03/07 03:51:16;;;;;;;18.73;12.20;;;;;;;5.15;72.75;96449.94;5011824;28;20593;-84
2024/03/07 03:53:43;;;;;;;13.33;9.50;;;;;;;5.13;72.94;96455.44;5013449;28;20223;-84
2024/03/07 03:56:15;;;;;;;24.23;11.13;;;;;;;4.88;72.59;96402.56;5011240;28;20596;-84
2024/03/07 03:58:43;;;;;;;11.23;10.03;;;;;;;5.26;72.61;96448.13;5004086;28;20609;-83
2024/03/07 04:01:13;;;;;;;15.13;9.43;;;;;;;5.08;72.56;96428.25;4993304;28;20266;-83
2024/03/07 04:03:56;;;;;;;13.70;9.97;;;;;;;5.25;72.34;96454.47;4991978;28;20614;-83
2024/03/07 04:06:23;;;;;;;12.57;9.70;;;;;;;5.19;72.71;96456.28;4993045;28;20218;-85
2024/03/07 04:08:51;;;;;;;14.80;10.40;;;;;;;5.15;72.53;96450.72;5011240;28;20195;-83
2024/03/07 04:11:27;;;;;;;16.30;11.13;;;;;;;5.08;72.96;96457.28;5011581;28;20210;-83
2024/03/07 04:13:54;;;;;;;16.73;11.63;;;;;;;5.06;72.83;96457.50;5012520;28;20284;-83
2024/03/07 04:16:21;;;;;;;16.63;13.30;;;;;;;5.07;72.86;96432.75;5011898;28;20207;-83
2024/03/07 04:18:50;;;;;;;21.30;16.50;;;;;;;5.03;72.42;96436.91;5010646;28;20204;-84
2024/03/07 04:21:16;;;;;;;21.23;14.13;;;;;;;4.61;73.06;96376.25;5012010;28;20203;-83
2024/03/07 04:23:46;;;;;;;18.23;14.33;;;;;;;5.07;72.69;96459.13;5026782;28;20214;-84
2024/03/07 04:26:13;;;;;;;16.17;11.20;;;;;;;4.78;73.13;96429.63;5017316;28;20227;-85
2024/03/07 04:28:40;;;;;;;14.67;9.83;;;;;;;5.01;72.78;96457.47;5012180;28;20253;-85
2024/03/07 04:31:08;;;;;;;13.27;9.80;;;;;;;4.99;72.99;96451.66;5010872;28;20203;-87
2024/03/07 04:33:35;;;;;;;15.00;10.37;;;;;;;4.88;72.94;96429.72;5011846;28;20215;-87
2024/03/07 04:36:04;;;;;;;18.67;10.97;;;;;;;4.97;72.53;96445.84;5011035;28;20204;-87
2024/03/07 04:38:31;;;;;;;13.87;10.47;;;;;;;5.01;72.51;96456.69;5003442;28;20231;-88
2024/03/07 04:40:58;;;;;;;19.37;10.90;;;;;;;4.63;73.07;96403.16;5007501;28;20551;-87
2024/03/07 04:43:25;;;;;;;14.57;10.20;;;;;;;4.62;73.25;96425.28;5011608;28;20629;-88
2024/03/07 04:46:01;;;;;;;13.57;9.77;;;;;;;4.73;72.76;96394.53;5010447;28;20235;-87
2024/03/07 04:48:34;;;;;;;12.67;10.60;;;;;;;4.90;72.62;96413.63;4995361;28;20196;-87
2024/03/07 04:51:01;;;;;;;16.57;12.40;;;;;;;4.78;72.61;96381.38;5011290;28;20207;-87
2024/03/07 04:53:30;;;;;;;12.87;11.03;;;;;;;4.88;73.03;96431.56;4999505;28;20230;-88
2024/03/07 04:55:59;;;;;;;13.77;10.83;;;;;;;4.78;72.74;96400.63;5004029;28;20203;-86
2024/03/07 04:58:39;;;;;;;15.50;9.67;;;;;;;4.98;73.51;96450.06;5010842;28;20203;-87
2024/03/07 05:01:21;;;;;;;12.83;10.07;;;;;;;4.90;73.04;96448.69;5010187;28;20199;-86
2024/03/07 05:03:48;;;;;;;11.37;9.03;;;;;;;4.40;73.30;96378.72;5009429;28;20203;-87
2024/03/07 05:06:18;;;;;;;13.67;9.63;;;;;;;4.90;73.03;96443.41;5025632;28;20198;-87
2024/03/07 05:08:47;;;;;;;15.33;11.67;;;;;;;4.92;73.43;96451.09;5015505;28;20221;-89
2024/03/07 05:11:14;;;;;;;16.47;10.17;;;;;;;4.94;72.84;96469.28;5031706;28;20727;-87
2024/03/07 05:13:51;;;;;;;12.60;10.13;;;;;;;4.29;72.52;96361.25;5031443;28;20639;-88
2024/03/07 05:16:19;;;;;;;20.77;11.07;;;;;;;4.60;72.48;96414.97;5009090;28;20202;-87
2024/03/07 05:18:46;;;;;;;17.30;10.57;;;;;;;4.46;72.22;96402.50;5010714;28;20199;-87
2024/03/07 05:24:03;;;;;;;43.67;26.50;;;;;;;4.56;72.12;96434.19;5011551;28;20594;-88
2024/03/07 05:26:33;;;;;;;20.57;13.70;;;;;;;4.86;72.37;96465.28;5011122;28;20231;-87
2024/03/07 05:29:15;;;;;;;14.37;11.17;;;;;;;4.65;71.68;96451.94;5011665;28;20690;-86
2024/03/07 05:31:48;;;;;;;15.67;10.07;;;;;;;4.30;71.53;96401.56;5013940;28;20282;-86
2024/03/07 05:34:16;;;;;;;14.50;10.87;;;;;;;4.61;71.74;96434.25;5015838;28;20218;-87
2024/03/07 05:36:45;;;;;;;14.17;9.73;;;;;;;4.49;71.55;96412.50;5028344;28;20233;-87
2024/03/07 05:39:14;;;;;;;15.13;11.17;;;;;;;4.73;72.31;96473.63;5035171;28;20199;-87
2024/03/07 05:41:43;;;;;;;14.20;10.33;;;;;;;4.44;72.49;96423.03;5035593;28;20626;-86
2024/03/07 05:44:39;;;;;;;12.37;9.70;;;;;;;4.69;72.44;96467.25;5035390;28;20198;-87
2024/03/07 05:47:07;;;;;;;16.27;11.17;;;;;;;4.59;72.03;96449.50;5035325;28;20574;-87
2024/03/07 05:49:37;;;;;;;20.10;15.00;;;;;;;4.61;71.44;96432.41;5028748;28;20203;-85
2024/03/07 05:52:06;;;;;;;16.87;11.70;;;;;;;4.84;72.10;96470.81;5014504;28;20211;-84
2024/03/07 05:54:37;;;;;;;15.77;9.87;;;;;;;4.74;71.51;96462.03;5014690;28;20282;-84
2024/03/07 05:57:15;;;;;;;16.47;10.67;;;;;;;4.89;71.41;96472.69;5013969;28;20199;-84
2024/03/07 05:59:58;;;;;;;11.63;8.77;;;;;;;4.81;71.74;96454.69;5006434;28;20738;-86
2024/03/07 06:02:46;;;;;;;13.77;10.70;;;;;;;4.93;71.70;96480.91;5014724;28;20199;-86
2024/03/07 06:05:15;;;;;;;13.17;10.33;;;;;;;4.79;72.29;96470.75;5015359;28;20195;-85
2024/03/07 06:07:42;;;;;;;14.17;9.80;;;;;;;4.75;72.33;96430.13;5015075;28;20202;-86
2024/03/07 06:10:14;;;;;;;17.07;9.13;;;;;;;4.81;72.24;96479.22;5012246;28;20648;-86
2024/03/07 06:15:36;;;;;;;17.03;11.97;;;;;;;4.95;72.96;96489.34;5014409;28;20306;-86
2024/03/07 06:18:04;;;;;;;17.33;10.70;;;;;;;4.59;72.80;96446.88;5013556;28;20226;-86
2024/03/07 06:20:31;;;;;;;17.90;13.17;;;;;;;4.75;72.98;96467.03;5014036;28;20203;-85
2024/03/07 06:23:11;;;;;;;16.67;10.00;;;;;;;4.52;72.79;96439.16;5013844;28;20286;-85
2024/03/07 06:25:47;;;;;;;12.87;10.00;;;;;;;4.74;72.95;96470.72;5026648;28;20562;-86
2024/03/07 06:28:14;;;;;;;16.60;10.37;;;;;;;4.47;72.24;96425.16;5013310;28;20222;-86
2024/03/07 06:30:42;;;;;;;15.13;9.37;;;;;;;4.54;72.53;96436.28;5013464;28;20583;-84
2024/03/07 06:33:25;;;;;;;13.63;10.37;;;;;;;4.82;72.81;96475.53;5013632;28;20249;-85
2024/03/07 06:36:11;;;;;;;13.23;9.43;;;;;;;4.85;72.40;96482.16;5012647;28;20290;-86
2024/03/07 06:39:03;;;;;;;16.13;10.03;;;;;;;4.68;72.59;96470.94;4999322;28;20195;-87
2024/03/07 06:41:31;;;;;;;12.50;9.13;;;;;;;4.94;72.66;96493.03;5012621;28;20659;-84
2024/03/07 06:43:58;;;;;;;27.87;16.63;;;;;;;4.74;72.59;96488.38;5012940;28;20266;-85
2024/03/07 06:46:36;;;;;;;23.23;14.13;;;;;;;4.65;72.64;96478.31;5013165;28;20211;-86
2024/03/07 06:49:05;;;;;;;14.07;10.47;;;;;;;4.56;72.21;96444.72;5013404;28;20207;-85
2024/03/07 06:51:54;;;;;;;18.90;12.23;;;;;;;4.69;72.79;96496.25;5012800;28;20212;-86
2024/03/07 06:54:21;;;;;;;11.97;8.80;;;;;;;4.51;72.90;96478.97;5012753;28;20223;-85
2024/03/07 06:59:49;;;;;;;26.90;17.37;;;;;;;4.71;74.00;96499.44;5150010;27;20553;-81
2024/03/07 07:02:16;;;;;;;28.37;18.70;;;;;;;4.56;74.51;96505.34;5149829;27;20198;-81
2024/03/07 07:04:44;;;;;;;17.73;13.20;;;;;;;4.57;74.88;96502.47;5149501;27;20218;-81
2024/03/07 07:07:12;;;;;;;18.40;11.83;;;;;;;4.59;75.15;96500.38;5149423;27;20198;-82
2024/03/07 07:09:39;;;;;;;15.53;11.10;;;;;;;4.62;75.97;96496.47;5147720;27;20243;-81
2024/03/07 07:12:07;;;;;;;13.93;11.13;;;;;;;4.61;76.24;96490.41;5148558;27;20201;-82
2024/03/07 07:14:35;;;;;;;15.63;11.57;;;;;;;4.55;77.79;96493.22;5149410;27;20251;-82
2024/03/07 07:17:03;;;;;;;16.17;10.43;;;;;;;4.51;78.50;96502.69;5148003;27;20277;-82
2024/03/07 07:19:29;;;;;;;17.10;10.73;;;;;;;4.41;79.18;96495.44;5148412;27;20305;-82
2024/03/07 07:21:56;;;;;;;17.03;11.47;;;;;;;4.47;79.85;96499.75;5149292;27;20194;-82
2024/03/07 07:24:25;;;;;;;16.03;10.83;;;;;;;4.31;80.01;96495.38;5149287;27;20205;-82
2024/03/07 07:26:52;;;;;;;14.77;10.67;;;;;;;4.23;80.56;96474.75;5147396;27;20198;-82
2024/03/07 07:29:18;;;;;;;20.30;11.63;;;;;;;4.41;80.34;96498.09;5138390;27;20198;-82
2024/03/07 07:31:46;;;;;;;15.60;10.47;;;;;;;4.20;81.26;96488.41;5149333;27;20739;-83
2024/03/07 07:34:19;;;;;;;16.30;12.33;;;;;;;4.28;81.08;96499.28;5149423;27;20201;-83
2024/03/07 07:36:46;;;;;;;19.03;14.40;;;;;;;4.13;82.30;96494.66;5149335;27;20246;-84
2024/03/07 07:39:16;;;;;;;23.50;16.30;;;;;;;4.26;82.29;96495.28;5149156;27;20258;-84
2024/03/07 07:41:43;;;;;;;20.07;14.53;;;;;;;4.02;82.05;96474.50;5149167;27;20190;-84
2024/03/07 07:44:10;;;;;;;20.10;14.20;;;;;;;4.01;82.35;96448.44;5136602;27;20198;-82
2024/03/07 07:46:37;;;;;;;17.10;12.07;;;;;;;4.31;82.06;96496.16;5146985;27;20196;-81
2024/03/07 07:49:03;;;;;;;16.07;13.03;;;;;;;4.37;82.12;96497.00;5148941;27;20285;-83
2024/03/07 07:51:32;;;;;;;14.87;11.60;;;;;;;4.37;81.65;96489.88;5149219;27;20603;-82
2024/03/07 07:53:59;;;;;;;19.03;12.43;;;;;;;4.34;82.66;96497.50;5149151;27;20198;-83
2024/03/07 07:56:28;;;;;;;21.23;13.30;;;;;;;3.91;82.89;96442.03;5148764;27;20194;-83
2024/03/07 07:58:55;;;;;;;14.20;10.90;;;;;;;4.44;82.36;96499.44;5148788;27;20225;-82
2024/03/07 08:01:21;;;;;;;14.37;10.40;;;;;;;4.24;82.88;96498.19;5148099;27;20190;-81
2024/03/07 08:03:48;;;;;;;19.70;13.67;;;;;;;4.21;83.49;96476.81;5148415;27;20193;-83
2024/03/07 08:06:15;;;;;;;21.17;14.50;;;;;;;4.43;83.51;96500.50;5148715;27;20198;-83
2024/03/07 08:08:43;;;;;;;20.83;13.03;;;;;;;4.53;82.66;96519.84;5148694;27;20632;-83
2024/03/07 08:11:11;;;;;;;17.63;13.17;;;;;;;4.63;82.95;96513.84;5134805;27;20194;-83
2024/03/07 08:13:43;;;;;;;18.17;14.03;;;;;;;4.36;83.09;96500.69;5134821;27;20197;-83
2024/03/07 08:16:11;;;;;;;18.87;15.47;;;;;;;4.56;83.13;96515.91;5134834;27;20291;-82
2024/03/07 08:18:41;;;;;;;20.73;12.77;;;;;;;4.19;83.36;96455.22;5134972;27;20275;-83
2024/03/07 08:21:10;;;;;;;22.27;16.57;;;;;;;4.57;83.44;96507.75;5134372;27;20195;-82
2024/03/07 08:23:37;;;;;;;23.60;15.43;;;;;;;4.46;82.78;96489.47;5134431;27;20198;-83
2024/03/07 08:26:06;;;;;;;24.60;16.10;;;;;;;4.41;83.56;96493.63;5134430;27;20191;-83
2024/03/07 08:28:32;;;;;;;30.33;17.27;;;;;;;4.71;83.62;96528.44;5134047;27;20234;-83
2024/03/07 08:31:00;;;;;;;21.70;15.20;;;;;;;4.34;83.45;96484.34;5126384;27;20261;-83
2024/03/07 08:33:26;;;;;;;15.57;11.77;;;;;;;4.60;83.26;96544.13;5130211;27;20194;-83
2024/03/07 08:35:54;;;;;;;17.17;13.20;;;;;;;4.49;83.91;96546.91;5132963;27;20202;-83
2024/03/07 08:38:21;;;;;;;17.03;12.40;;;;;;;4.19;83.85;96508.69;5134402;27;20642;-83
2024/03/07 08:40:48;;;;;;;23.53;15.03;;;;;;;4.32;84.02;96558.34;5134516;27;20285;-84
2024/03/07 08:43:16;;;;;;;20.73;11.33;;;;;;;4.41;83.66;96559.53;5131624;27;20207;-83
2024/03/07 08:45:43;;;;;;;18.07;14.87;;;;;;;4.47;84.10;96562.19;5113425;28;20207;-83
2024/03/07 08:48:09;;;;;;;16.90;13.77;;;;;;;4.52;83.60;96572.78;5130550;27;20669;-83
2024/03/07 08:50:40;;;;;;;15.70;12.20;;;;;;;4.46;83.69;96569.31;5134488;27;20191;-84
2024/03/07 08:53:07;;;;;;;14.93;12.53;;;;;;;4.53;83.90;96569.91;5134028;27;20251;-84
2024/03/07 08:55:35;;;;;;;17.97;13.83;;;;;;;4.34;83.56;96555.47;5134492;27;20191;-84
2024/03/07 08:58:02;;;;;;;16.97;13.40;;;;;;;4.38;84.27;96562.63;5133794;27;20610;-84
2024/03/07 09:00:32;;;;;;;21.00;14.10;;;;;;;4.24;84.47;96548.25;5122098;27;20578;-83
2024/03/07 09:03:03;;;;;;;29.00;19.53;;;;;;;4.00;84.50;96523.22;5131362;27;20201;-84
2024/03/07 09:05:33;;;;;;;18.40;15.23;;;;;;;4.41;84.19;96569.22;5133805;27;20199;-84
2024/03/07 09:08:00;;;;;;;18.67;13.47;;;;;;;4.24;83.78;96573.78;5126333;27;20561;-84
2024/03/07 09:10:29;;;;;;;20.97;14.23;;;;;;;4.16;83.72;96517.06;5126047;27;20198;-83
2024/03/07 09:12:57;;;;;;;19.43;14.93;;;;;;;4.45;84.29;96567.69;5133391;27;20322;-84
2024/03/07 09:15:23;;;;;;;14.13;11.87;;;;;;;4.55;83.07;96574.94;5131936;27;20247;-83
2024/03/07 09:17:52;;;;;;;19.33;12.77;;;;;;;4.31;83.69;96571.78;5113532;28;20227;-83
2024/03/07 09:20:20;;;;;;;14.50;11.30;;;;;;;4.44;83.79;96554.78;5126444;27;20250;-84
2024/03/07 09:22:48;;;;;;;19.20;11.87;;;;;;;4.13;83.20;96538.63;5132600;27;20277;-83
2024/03/07 09:25:16;;;;;;;15.73;12.17;;;;;;;4.35;83.57;96568.41;5133362;27;20195;-84
2024/03/07 09:27:43;;;;;;;17.13;12.27;;;;;;;4.10;83.63;96570.72;5129381;27;20293;-83
2024/03/07 09:30:14;;;;;;;21.77;12.07;;;;;;;4.12;84.23;96545.75;5133053;27;20575;-83
2024/03/07 09:32:43;;;;;;;17.37;12.90;;;;;;;4.23;83.37;96564.31;5133282;27;20281;-83
2024/03/07 09:35:13;;;;;;;23.37;12.50;;;;;;;4.13;83.44;96547.31;5133332;27;20195;-83
2024/03/07 09:37:41;;;;;;;15.47;12.43;;;;;;;4.25;82.03;96572.75;5133461;27;20616;-82
2024/03/07 09:40:11;;;;;;;15.93;12.53;;;;;;;4.22;82.51;96571.41;5132778;27;20301;-83
2024/03/07 09:42:44;;;;;;;48.80;28.97;;;;;;;4.12;82.90;96572.06;5132745;27;20199;-83
2024/03/07 09:45:15;;;;;;;19.80;14.03;;;;;;;4.20;82.68;96575.31;5130850;27;20657;-83
2024/03/07 09:47:43;;;;;;;15.63;11.07;;;;;;;4.20;83.07;96572.69;5133346;27;20195;-83
2024/03/07 09:50:12;;;;;;;17.27;12.53;;;;;;;4.05;82.96;96557.50;5103913;27;20191;-83
2024/03/07 09:52:40;;;;;;;14.40;10.23;;;;;;;4.16;83.35;96569.75;5133061;27;20657;-83
2024/03/07 09:55:08;;;;;;;19.67;15.80;;;;;;;3.85;84.25;96526.44;5109254;27;20266;-84
2024/03/07 09:57:37;;;;;;;14.77;10.67;;;;;;;4.26;84.21;96580.41;5132200;27;20202;-83
2024/03/07 10:00:06;;;;;;;17.67;11.20;;;;;;;4.09;83.54;96572.56;5132904;27;20214;-83
2024/03/07 10:02:36;;;;;;;15.83;11.03;;;;;;;4.29;84.95;96574.63;5132916;27;20289;-84
2024/03/07 10:05:06;;;;;;;13.20;10.50;;;;;;;4.44;84.48;96592.47;5131013;27;20203;-83
2024/03/07 10:07:34;;;;;;;14.33;10.93;;;;;;;4.19;83.78;96542.13;5132542;27;20198;-83
2024/03/07 10:10:09;;;;;;;20.30;11.97;;;;;;;4.58;83.79;96583.16;5132656;27;20252;-83
2024/03/07 10:12:39;;;;;;;20.80;12.57;;;;;;;4.58;83.64;96583.16;5115838;27;20594;-83
2024/03/07 10:15:10;;;;;;;18.80;15.47;;;;;;;4.62;84.09;96588.72;5123493;27;20198;-84
2024/03/07 10:17:41;;;;;;;17.47;12.30;;;;;;;4.37;83.16;96536.50;5132274;27;20186;-83
2024/03/07 10:20:13;;;;;;;14.97;11.37;;;;;;;4.65;82.75;96596.94;5132173;27;20707;-83
2024/03/07 10:22:44;;;;;;;15.60;11.80;;;;;;;4.54;83.54;96581.25;5132565;27;20195;-84
2024/03/07 10:25:11;;;;;;;20.73;15.80;;;;;;;4.72;83.15;96588.81;5130488;27;20209;-84
2024/03/07 10:27:40;;;;;;;18.83;15.23;;;;;;;4.72;83.02;96580.09;5117938;27;20614;-84
2024/03/07 10:30:08;;;;;;;33.40;21.87;;;;;;;4.68;83.44;96587.72;5116478;27;20198;-84
2024/03/07 10:32:35;;;;;;;22.23;17.80;;;;;;;4.73;83.36;96579.88;5123360;27;20642;-83
2024/03/07 10:35:04;;;;;;;30.67;23.60;;;;;;;4.41;83.14;96516.53;5128435;27;20247;-84
2024/03/07 10:37:31;;;;;;;18.27;14.10;;;;;;;4.82;82.73;96596.84;5132362;27;20317;-83
2024/03/07 10:39:59;;;;;;;17.63;11.90;;;;;;;4.74;82.95;96589.38;5114598;27;20230;-84
2024/03/07 10:42:32;;;;;;;22.40;18.07;;;;;;;4.89;82.53;96592.16;5122647;27;20199;-84
2024/03/07 10:45:05;;;;;;;24.90;16.83;;;;;;;4.76;82.20;96568.84;5131819;27;20593;-84
2024/03/07 10:47:35;;;;;;;15.87;13.20;;;;;;;4.74;83.18;96578.81;5132252;27;20206;-83
2024/03/07 10:50:14;;;;;;;21.60;17.70;;;;;;;4.77;83.58;96586.25;5125183;27;20282;-83
2024/03/07 10:52:50;;;;;;;20.20;15.67;;;;;;;4.60;82.62;96554.69;5124758;27;20202;-84
2024/03/07 10:55:26;;;;;;;23.60;17.33;;;;;;;4.94;82.70;96596.69;5132023;27;20278;-83
2024/03/07 10:58:03;;;;;;;15.80;14.20;;;;;;;4.89;82.70;96588.72;5119579;28;20308;-83
2024/03/07 11:00:35;;;;;;;20.33;14.40;;;;;;;4.95;83.04;96587.72;5132257;27;20221;-83
2024/03/07 11:03:06;;;;;;;16.17;13.73;;;;;;;5.10;81.87;96574.66;5117924;27;20209;-83
2024/03/07 11:05:34;;;;;;;25.67;18.30;;;;;;;4.51;82.41;96521.91;5131492;28;20205;-83
2024/03/07 11:08:06;;;;;;;19.83;13.77;;;;;;;4.87;82.71;96569.72;5132176;28;20198;-82
2024/03/07 11:10:36;;;;;;;21.03;15.30;;;;;;;4.93;83.76;96557.38;5116652;28;20276;-83
2024/03/07 11:13:05;;;;;;;24.57;17.57;;;;;;;4.95;84.14;96565.81;5131786;28;20281;-83
2024/03/07 11:15:34;;;;;;;21.73;16.63;;;;;;;4.96;83.67;96570.88;5131866;28;20233;-82
2024/03/07 11:18:01;;;;;;;23.50;17.57;;;;;;;4.96;83.27;96575.34;5131049;28;20624;-83
2024/03/07 11:20:36;;;;;;;15.43;12.43;;;;;;;4.86;82.94;96576.81;5130664;28;20222;-83
2024/03/07 11:23:28;;;;;;;24.73;17.23;;;;;;;4.87;83.27;96574.97;5131947;28;20205;-83
2024/03/07 11:26:07;;;;;;;21.83;15.37;;;;;;;4.82;83.16;96561.75;5105976;28;20277;-83
2024/03/07 11:28:37;;;;;;;27.40;21.00;;;;;;;4.86;82.74;96547.03;5119739;28;20193;-83
2024/03/07 11:31:26;;;;;;;26.27;19.97;;;;;;;5.00;82.97;96571.97;5131468;28;20195;-83
2024/03/07 11:34:15;;;;;;;16.40;14.00;;;;;;;4.89;83.09;96568.44;5131574;28;20259;-83
2024/03/07 11:36:46;;;;;;;13.67;11.03;;;;;;;4.97;82.70;96567.19;5128657;28;20646;-83
2024/03/07 11:39:42;;;;;;;15.90;12.97;;;;;;;4.98;83.13;96570.59;5131313;28;20222;-83
2024/03/07 11:42:21;;;;;;;19.63;13.43;;;;;;;4.94;83.55;96569.50;5130288;28;20202;-83
2024/03/07 11:44:49;;;;;;;23.57;16.93;;;;;;;5.08;83.59;96568.84;5132069;27;20202;-83
2024/03/07 11:47:17;;;;;;;17.30;12.67;;;;;;;5.05;84.39;96558.00;5135681;27;20628;-83